Huvudsida
METAR-TAF:

METAR-TAF

Flygplatser :

Ushuaia, Argentina

Ushuaia Aerodrome

latitud: 54-48S, longitud: 068-19W, höjd: 16 m

Aktuellt väderrapport

Denna rapport gjordes för 18 timmar och 4 minuter sedan, klockan 15:00 UTC
Stilla vind
Temperatur 13°C
Fuktighet 82%
Tryck 998 hPa
Sikt 10 km eller mer
Spridda moln på en höjd av 4000 ft

METAR: SAWH 201500Z 00000KT 9999 SCT040 13/10 Q0998

Tid: 06:04 (09:04 UTC)

Väderprognos

Denna rapport gjordes för 22 timmar och 4 minuter sedan, klockan 11:00 UTC
Prognos gäller från 20 kl. 12 UTC till 21 kl. 12 UTC
Vind 15 kt från nordväst
Sikt 10 km eller mer
Brutna moln på en höjd av 3000 ft
Brutna moln på en höjd av 9000 ft
Blir
från 21 kl. 06 UTC till 21 kl. 08 UTC
Vind 20 kt från nord/nordost i byarna ända upp till 30 kt

TAF: SAWH 201100Z 2012/2112 32015KT 9999 BKN030 BKN090 TX15/2018Z TN10/2111Z BECMG 2106/2108 02020G30KT

Aktuella väderrapporter och prognoser från 4000 flygplatser (METAR- och TAF-rapporter).

De tillgängliga stationerna syns som gula och röda prickar på kartan.

För musen över prickarna för att se namnen på stationerna.

Klicka sedan för att få väderrapporter och prognoser.

För att ändra kartan: Klicka på de gröna knapparna med ett svart kors på för att zooma in; den gröna knappen med ett streck på för att zooma ut; eller på de gröna pilarna för angränsande kartor.


METAR-TAF: